Accueil
METAR-TAF:

METAR-TAF

Aéroports :

Tripoli, Libye

Aéroport de Milaga

latitude: 32-54N, longitude: 13-17E, altitude: 11 m

Observation

Le bulletin a été fait il y a 1 heure et 16 minutes, à 01:50 UTC
Vent 6 kt de est/sud-est
Température 26°C
Humidité 70%
Pression 1016 hPa
Visibilité: 7000 m
Ciel clair

METAR: HLLM 240150Z 12006KT 7000 SKC 26/20 Q1016

Heure: 05:06 (03:06 UTC)

Prévision

Le bulletin a été fait il y a 10 heures et 6 minutes, à 17:00 UTC
Prévision valable du 23 à 18 UTC au 24 à 18 UTC
Vent 15 kt de est
Visibilité 10 km ou plus
Evoluant progressivement
du 24 à 03 UTC au 24 à 05 UTC
Vent 12 kt de sud-est
Evoluant progressivement
du 24 à 12 UTC au 24 à 14 UTC
Vent 15 kt de est/nord-est avec des rafales jusqu'à 20 kt

TAF: HLLM 231700Z 2318/2418 08015KT 9999 FEW 025 BECMG 2403/2405 14012KT BECMG 2412/2414 07015G20KT

Observations et prévisions météorologiques de plus de 4000 aéroports (messages METAR et TAF).

Les stations disponibles sont représentées par des disques jaunes et rouges sur la carte.

Passer la souris dessus pour voir le nom de la station.

Cliquer dessus pour voir les observations et prévisions météorologiques.

Pour changer de carte: cliquez sur les boutons verts avec une croix noire pour zoomer, sur le bouton vert avec un tiret pour effectuer un zoom arrière, ou sur les flèches vertes pour les cartes adjacentes.


METAR-TAF: